sensor_id;sensor_type;location;lat;lon;timestamp;P1;durP1;ratioP1;P2;durP2;ratioP2
75342;SDS011;63936;51.006;13.764;2023-11-22T00:00:01;12;;;6;;
75342;SDS011;63936;51.006;13.764;2023-11-22T00:02:01;11;;;6;;
75342;SDS011;63936;51.006;13.764;2023-11-22T00:04:01;12;;;7;;
75342;SDS011;63936;51.006;13.764;2023-11-22T00:06:01;12;;;7;;
75342;SDS011;63936;51.006;13.764;2023-11-22T00:08:01;12;;;7;;
75342;SDS011;63936;51.006;13.764;2023-11-22T00:10:02;19;;;11;;
75342;SDS011;63936;51.006;13.764;2023-11-22T00:12:02;23;;;10;;
75342;SDS011;63936;51.006;13.764;2023-11-22T00:14:02;32;;;9;;
75342;SDS011;63936;51.006;13.764;2023-11-22T00:16:01;12;;;7;;
75342;SDS011;63936;51.006;13.764;2023-11-22T00:18:01;16;;;8;;
75342;SDS011;63936;51.006;13.764;2023-11-22T00:20:01;16;;;8;;
75342;SDS011;63936;51.006;13.764;2023-11-22T00:22:01;16;;;7;;
75342;SDS011;63936;51.006;13.764;2023-11-22T00:24:01;16;;;7;;
75342;SDS011;63936;51.006;13.764;2023-11-22T00:26:01;14;;;6;;
75342;SDS011;63936;51.006;13.764;2023-11-22T00:28:01;34;;;8;;
75342;SDS011;63936;51.006;13.764;2023-11-22T00:30:02;48;;;12;;
75342;SDS011;63936;51.006;13.764;2023-11-22T00:32:01;46;;;13;;
75342;SDS011;63936;51.006;13.764;2023-11-22T00:34:01;19;;;10;;
75342;SDS011;63936;51.006;13.764;2023-11-22T00:36:01;17;;;9;;
75342;SDS011;63936;51.006;13.764;2023-11-22T00:38:01;22;;;9;;
75342;SDS011;63936;51.006;13.764;2023-11-22T00:40:02;27;;;11;;
75342;SDS011;63936;51.006;13.764;2023-11-22T00:42:01;26;;;12;;
75342;SDS011;63936;51.006;13.764;2023-11-22T00:44:01;20;;;9;;
75342;SDS011;63936;51.006;13.764;2023-11-22T00:46:01;15;;;8;;
75342;SDS011;63936;51.006;13.764;2023-11-22T00:48:01;15;;;8;;
75342;SDS011;63936;51.006;13.764;2023-11-22T00:50:01;18;;;7;;
75342;SDS011;63936;51.006;13.764;2023-11-22T00:52:01;18;;;7;;
75342;SDS011;63936;51.006;13.764;2023-11-22T00:54:01;15;;;7;;
75342;SDS011;63936;51.006;13.764;2023-11-22T00:56:01;15;;;7;;
75342;SDS011;63936;51.006;13.764;2023-11-22T00:58:01;13;;;7;;
75342;SDS011;63936;51.006;13.764;2023-11-22T01:00:02;14;;;7;;
75342;SDS011;63936;51.006;13.764;2023-11-22T01:02:04;14;;;7;;
75342;SDS011;63936;51.006;13.764;2023-11-22T01:04:03;14;;;7;;
75342;SDS011;63936;51.006;13.764;2023-11-22T01:06:04;21;;;12;;
75342;SDS011;63936;51.006;13.764;2023-11-22T01:08:04;21;;;12;;
75342;SDS011;63936;51.006;13.764;2023-11-22T01:10:06;27;;;13;;
75342;SDS011;63936;51.006;13.764;2023-11-22T01:12:03;20;;;12;;
75342;SDS011;63936;51.006;13.764;2023-11-22T01:14:02;20;;;10;;
75342;SDS011;63936;51.006;13.764;2023-11-22T01:16:02;22;;;11;;
75342;SDS011;63936;51.006;13.764;2023-11-22T01:18:05;17;;;9;;
75342;SDS011;63936;51.006;13.764;2023-11-22T01:20:06;17;;;9;;
75342;SDS011;63936;51.006;13.764;2023-11-22T01:22:02;16;;;8;;
75342;SDS011;63936;51.006;13.764;2023-11-22T01:24:04;16;;;8;;
75342;SDS011;63936;51.006;13.764;2023-11-22T01:26:03;27;;;14;;
75342;SDS011;63936;51.006;13.764;2023-11-22T01:28:01;21;;;12;;
75342;SDS011;63936;51.006;13.764;2023-11-22T01:30:02;21;;;11;;
75342;SDS011;63936;51.006;13.764;2023-11-22T01:32:01;17;;;10;;
75342;SDS011;63936;51.006;13.764;2023-11-22T01:34:01;19;;;8;;
75342;SDS011;63936;51.006;13.764;2023-11-22T01:36:02;16;;;8;;
75342;SDS011;63936;51.006;13.764;2023-11-22T01:38:02;16;;;9;;
75342;SDS011;63936;51.006;13.764;2023-11-22T01:40:02;16;;;8;;
75342;SDS011;63936;51.006;13.764;2023-11-22T01:42:01;15;;;8;;
75342;SDS011;63936;51.006;13.764;2023-11-22T01:44:03;17;;;8;;
75342;SDS011;63936;51.006;13.764;2023-11-22T01:46:01;17;;;9;;
75342;SDS011;63936;51.006;13.764;2023-11-22T01:48:01;22;;;10;;
75342;SDS011;63936;51.006;13.764;2023-11-22T01:50:01;18;;;8;;
75342;SDS011;63936;51.006;13.764;2023-11-22T01:52:01;19;;;9;;
75342;SDS011;63936;51.006;13.764;2023-11-22T01:54:01;15;;;8;;
75342;SDS011;63936;51.006;13.764;2023-11-22T01:56:01;15;;;8;;
75342;SDS011;63936;51.006;13.764;2023-11-22T01:58:01;27;;;15;;
75342;SDS011;63936;51.006;13.764;2023-11-22T02:00:04;20;;;11;;
75342;SDS011;63936;51.006;13.764;2023-11-22T02:02:01;20;;;11;;
75342;SDS011;63936;51.006;13.764;2023-11-22T02:04:01;25;;;14;;
75342;SDS011;63936;51.006;13.764;2023-11-22T02:06:01;22;;;12;;
75342;SDS011;63936;51.006;13.764;2023-11-22T02:08:01;20;;;10;;
75342;SDS011;63936;51.006;13.764;2023-11-22T02:10:02;21;;;10;;
75342;SDS011;63936;51.006;13.764;2023-11-22T02:12:01;19;;;10;;
75342;SDS011;63936;51.006;13.764;2023-11-22T02:14:01;20;;;10;;
75342;SDS011;63936;51.006;13.764;2023-11-22T02:16:02;18;;;7;;
75342;SDS011;63936;51.006;13.764;2023-11-22T02:18:02;21;;;10;;
75342;SDS011;63936;51.006;13.764;2023-11-22T02:20:03;21;;;10;;
75342;SDS011;63936;51.006;13.764;2023-11-22T02:22:02;18;;;9;;
75342;SDS011;63936;51.006;13.764;2023-11-22T02:24:01;18;;;9;;
75342;SDS011;63936;51.006;13.764;2023-11-22T02:26:01;22;;;9;;
75342;SDS011;63936;51.006;13.764;2023-11-22T02:28:01;22;;;9;;
75342;SDS011;63936;51.006;13.764;2023-11-22T02:30:01;24;;;14;;
75342;SDS011;63936;51.006;13.764;2023-11-22T02:32:01;22;;;12;;
75342;SDS011;63936;51.006;13.764;2023-11-22T02:34:01;24;;;11;;
75342;SDS011;63936;51.006;13.764;2023-11-22T02:36:01;20;;;11;;
75342;SDS011;63936;51.006;13.764;2023-11-22T02:38:01;17;;;9;;
75342;SDS011;63936;51.006;13.764;2023-11-22T02:40:04;21;;;10;;
75342;SDS011;63936;51.006;13.764;2023-11-22T02:42:01;21;;;10;;
75342;SDS011;63936;51.006;13.764;2023-11-22T02:44:01;25;;;14;;
75342;SDS011;63936;51.006;13.764;2023-11-22T02:46:01;22;;;11;;
75342;SDS011;63936;51.006;13.764;2023-11-22T02:48:01;20;;;10;;
75342;SDS011;63936;51.006;13.764;2023-11-22T02:50:02;17;;;9;;
75342;SDS011;63936;51.006;13.764;2023-11-22T02:52:02;17;;;9;;
75342;SDS011;63936;51.006;13.764;2023-11-22T02:54:01;16;;;8;;
75342;SDS011;63936;51.006;13.764;2023-11-22T02:56:02;16;;;8;;
75342;SDS011;63936;51.006;13.764;2023-11-22T02:58:02;17;;;8;;
75342;SDS011;63936;51.006;13.764;2023-11-22T03:00:02;17;;;8;;
75342;SDS011;63936;51.006;13.764;2023-11-22T03:02:01;21;;;10;;
75342;SDS011;63936;51.006;13.764;2023-11-22T03:04:01;21;;;11;;
75342;SDS011;63936;51.006;13.764;2023-11-22T03:06:01;25;;;14;;
75342;SDS011;63936;51.006;13.764;2023-11-22T03:08:01;25;;;14;;
75342;SDS011;63936;51.006;13.764;2023-11-22T03:10:02;21;;;11;;
75342;SDS011;63936;51.006;13.764;2023-11-22T03:12:01;21;;;11;;
75342;SDS011;63936;51.006;13.764;2023-11-22T03:14:02;19;;;10;;
75342;SDS011;63936;51.006;13.764;2023-11-22T03:16:01;18;;;10;;
75342;SDS011;63936;51.006;13.764;2023-11-22T03:18:01;18;;;10;;
75342;SDS011;63936;51.006;13.764;2023-11-22T03:20:02;24;;;13;;
75342;SDS011;63936;51.006;13.764;2023-11-22T03:22:01;26;;;15;;
75342;SDS011;63936;51.006;13.764;2023-11-22T03:24:01;26;;;15;;
75342;SDS011;63936;51.006;13.764;2023-11-22T03:26:01;19;;;10;;
75342;SDS011;63936;51.006;13.764;2023-11-22T03:28:01;19;;;10;;
75342;SDS011;63936;51.006;13.764;2023-11-22T03:30:01;17;;;9;;
75342;SDS011;63936;51.006;13.764;2023-11-22T03:32:01;18;;;9;;
75342;SDS011;63936;51.006;13.764;2023-11-22T03:34:01;20;;;10;;
75342;SDS011;63936;51.006;13.764;2023-11-22T03:36:01;26;;;13;;
75342;SDS011;63936;51.006;13.764;2023-11-22T03:38:01;26;;;13;;
75342;SDS011;63936;51.006;13.764;2023-11-22T03:40:05;21;;;11;;
75342;SDS011;63936;51.006;13.764;2023-11-22T03:42:01;21;;;11;;
75342;SDS011;63936;51.006;13.764;2023-11-22T03:44:01;20;;;10;;
75342;SDS011;63936;51.006;13.764;2023-11-22T03:46:01;19;;;10;;
75342;SDS011;63936;51.006;13.764;2023-11-22T03:48:01;25;;;13;;
75342;SDS011;63936;51.006;13.764;2023-11-22T03:50:02;26;;;15;;
75342;SDS011;63936;51.006;13.764;2023-11-22T03:52:01;20;;;11;;
75342;SDS011;63936;51.006;13.764;2023-11-22T03:54:01;20;;;11;;
75342;SDS011;63936;51.006;13.764;2023-11-22T03:56:01;20;;;11;;
75342;SDS011;63936;51.006;13.764;2023-11-22T03:58:01;25;;;14;;
75342;SDS011;63936;51.006;13.764;2023-11-22T04:00:02;25;;;14;;
75342;SDS011;63936;51.006;13.764;2023-11-22T04:02:01;20;;;10;;
75342;SDS011;63936;51.006;13.764;2023-11-22T04:04:02;18;;;10;;
75342;SDS011;63936;51.006;13.764;2023-11-22T04:06:02;18;;;10;;
75342;SDS011;63936;51.006;13.764;2023-11-22T04:08:03;20;;;9;;
75342;SDS011;63936;51.006;13.764;2023-11-22T04:10:04;20;;;9;;
75342;SDS011;63936;51.006;13.764;2023-11-22T04:12:02;17;;;8;;
75342;SDS011;63936;51.006;13.764;2023-11-22T04:14:01;16;;;10;;
75342;SDS011;63936;51.006;13.764;2023-11-22T04:16:01;23;;;12;;
75342;SDS011;63936;51.006;13.764;2023-11-22T04:18:01;25;;;14;;
75342;SDS011;63936;51.006;13.764;2023-11-22T04:20:02;24;;;13;;
75342;SDS011;63936;51.006;13.764;2023-11-22T04:22:01;27;;;14;;
75342;SDS011;63936;51.006;13.764;2023-11-22T04:24:01;23;;;12;;
75342;SDS011;63936;51.006;13.764;2023-11-22T04:26:01;22;;;10;;
75342;SDS011;63936;51.006;13.764;2023-11-22T04:28:01;22;;;10;;
75342;SDS011;63936;51.006;13.764;2023-11-22T04:30:02;23;;;13;;
75342;SDS011;63936;51.006;13.764;2023-11-22T04:32:01;23;;;13;;
75342;SDS011;63936;51.006;13.764;2023-11-22T04:34:01;25;;;15;;
75342;SDS011;63936;51.006;13.764;2023-11-22T04:36:01;21;;;11;;
75342;SDS011;63936;51.006;13.764;2023-11-22T04:38:01;21;;;10;;
75342;SDS011;63936;51.006;13.764;2023-11-22T04:40:03;18;;;10;;
75342;SDS011;63936;51.006;13.764;2023-11-22T04:42:01;18;;;10;;
75342;SDS011;63936;51.006;13.764;2023-11-22T04:44:01;22;;;13;;
75342;SDS011;63936;51.006;13.764;2023-11-22T04:46:01;19;;;10;;
75342;SDS011;63936;51.006;13.764;2023-11-22T04:48:01;16;;;10;;
75342;SDS011;63936;51.006;13.764;2023-11-22T04:50:02;25;;;10;;
75342;SDS011;63936;51.006;13.764;2023-11-22T04:52:01;18;;;8;;
75342;SDS011;63936;51.006;13.764;2023-11-22T04:54:01;16;;;9;;
75342;SDS011;63936;51.006;13.764;2023-11-22T04:56:01;14;;;7;;
75342;SDS011;63936;51.006;13.764;2023-11-22T04:58:01;14;;;7;;
75342;SDS011;63936;51.006;13.764;2023-11-22T05:00:02;24;;;13;;
75342;SDS011;63936;51.006;13.764;2023-11-22T05:02:02;24;;;13;;
75342;SDS011;63936;51.006;13.764;2023-11-22T05:04:02;18;;;10;;
75342;SDS011;63936;51.006;13.764;2023-11-22T05:06:01;14;;;8;;
75342;SDS011;63936;51.006;13.764;2023-11-22T05:08:01;17;;;9;;
75342;SDS011;63936;51.006;13.764;2023-11-22T05:10:02;17;;;9;;
75342;SDS011;63936;51.006;13.764;2023-11-22T05:12:01;22;;;13;;
75342;SDS011;63936;51.006;13.764;2023-11-22T05:14:01;20;;;11;;
75342;SDS011;63936;51.006;13.764;2023-11-22T05:16:01;20;;;11;;
75342;SDS011;63936;51.006;13.764;2023-11-22T05:18:02;20;;;11;;
75342;SDS011;63936;51.006;13.764;2023-11-22T05:20:03;23;;;14;;
75342;SDS011;63936;51.006;13.764;2023-11-22T05:22:01;22;;;12;;
75342;SDS011;63936;51.006;13.764;2023-11-22T05:24:01;18;;;11;;
75342;SDS011;63936;51.006;13.764;2023-11-22T05:26:01;18;;;11;;
75342;SDS011;63936;51.006;13.764;2023-11-22T05:28:01;24;;;13;;
75342;SDS011;63936;51.006;13.764;2023-11-22T05:30:02;24;;;14;;
75342;SDS011;63936;51.006;13.764;2023-11-22T05:32:02;19;;;12;;
75342;SDS011;63936;51.006;13.764;2023-11-22T05:34:02;20;;;10;;
75342;SDS011;63936;51.006;13.764;2023-11-22T05:36:01;22;;;12;;
75342;SDS011;63936;51.006;13.764;2023-11-22T05:38:01;24;;;19;;
75342;SDS011;63936;51.006;13.764;2023-11-22T05:40:02;18;;;10;;
75342;SDS011;63936;51.006;13.764;2023-11-22T05:42:01;22;;;10;;
75342;SDS011;63936;51.006;13.764;2023-11-22T05:44:01;21;;;10;;
75342;SDS011;63936;51.006;13.764;2023-11-22T05:46:01;20;;;9;;
75342;SDS011;63936;51.006;13.764;2023-11-22T05:48:01;18;;;9;;
75342;SDS011;63936;51.006;13.764;2023-11-22T05:50:01;20;;;10;;
75342;SDS011;63936;51.006;13.764;2023-11-22T05:52:01;18;;;9;;
75342;SDS011;63936;51.006;13.764;2023-11-22T05:54:01;18;;;9;;
75342;SDS011;63936;51.006;13.764;2023-11-22T05:56:01;23;;;11;;
75342;SDS011;63936;51.006;13.764;2023-11-22T05:58:01;24;;;14;;
75342;SDS011;63936;51.006;13.764;2023-11-22T06:00:02;24;;;14;;
75342;SDS011;63936;51.006;13.764;2023-11-22T06:02:01;27;;;15;;
75342;SDS011;63936;51.006;13.764;2023-11-22T06:04:02;20;;;12;;
75342;SDS011;63936;51.006;13.764;2023-11-22T06:06:02;20;;;12;;
75342;SDS011;63936;51.006;13.764;2023-11-22T06:08:03;26;;;15;;
75342;SDS011;63936;51.006;13.764;2023-11-22T06:10:02;20;;;11;;
75342;SDS011;63936;51.006;13.764;2023-11-22T06:12:02;22;;;11;;
75342;SDS011;63936;51.006;13.764;2023-11-22T06:14:02;20;;;10;;
75342;SDS011;63936;51.006;13.764;2023-11-22T06:16:01;21;;;10;;
75342;SDS011;63936;51.006;13.764;2023-11-22T06:18:03;20;;;10;;
75342;SDS011;63936;51.006;13.764;2023-11-22T06:20:02;24;;;13;;
75342;SDS011;63936;51.006;13.764;2023-11-22T06:22:02;28;;;16;;
75342;SDS011;63936;51.006;13.764;2023-11-22T06:24:02;24;;;13;;
75342;SDS011;63936;51.006;13.764;2023-11-22T06:26:02;24;;;13;;
75342;SDS011;63936;51.006;13.764;2023-11-22T06:28:01;27;;;15;;
75342;SDS011;63936;51.006;13.764;2023-11-22T06:30:03;22;;;12;;
75342;SDS011;63936;51.006;13.764;2023-11-22T06:32:01;22;;;12;;
75342;SDS011;63936;51.006;13.764;2023-11-22T06:34:02;24;;;11;;
75342;SDS011;63936;51.006;13.764;2023-11-22T06:36:02;24;;;11;;
75342;SDS011;63936;51.006;13.764;2023-11-22T06:38:02;25;;;11;;
75342;SDS011;63936;51.006;13.764;2023-11-22T06:40:05;25;;;16;;
75342;SDS011;63936;51.006;13.764;2023-11-22T06:42:02;21;;;12;;
75342;SDS011;63936;51.006;13.764;2023-11-22T06:44:01;21;;;12;;
75342;SDS011;63936;51.006;13.764;2023-11-22T06:46:02;19;;;10;;
75342;SDS011;63936;51.006;13.764;2023-11-22T06:48:02;26;;;14;;
75342;SDS011;63936;51.006;13.764;2023-11-22T06:50:03;29;;;23;;
75342;SDS011;63936;51.006;13.764;2023-11-22T06:52:02;29;;;23;;
75342;SDS011;63936;51.006;13.764;2023-11-22T06:54:03;18;;;10;;
75342;SDS011;63936;51.006;13.764;2023-11-22T06:56:02;18;;;10;;
75342;SDS011;63936;51.006;13.764;2023-11-22T06:58:02;18;;;9;;
75342;SDS011;63936;51.006;13.764;2023-11-22T07:00:03;18;;;9;;
75342;SDS011;63936;51.006;13.764;2023-11-22T07:02:02;17;;;9;;
75342;SDS011;63936;51.006;13.764;2023-11-22T07:04:02;18;;;10;;
75342;SDS011;63936;51.006;13.764;2023-11-22T07:06:02;24;;;12;;
75342;SDS011;63936;51.006;13.764;2023-11-22T07:08:02;28;;;15;;
75342;SDS011;63936;51.006;13.764;2023-11-22T07:10:03;26;;;16;;
75342;SDS011;63936;51.006;13.764;2023-11-22T07:12:02;23;;;10;;
75342;SDS011;63936;51.006;13.764;2023-11-22T07:14:01;18;;;10;;
75342;SDS011;63936;51.006;13.764;2023-11-22T07:16:02;20;;;11;;
75342;SDS011;63936;51.006;13.764;2023-11-22T07:18:02;19;;;10;;
75342;SDS011;63936;51.006;13.764;2023-11-22T07:20:01;19;;;10;;
75342;SDS011;63936;51.006;13.764;2023-11-22T07:22:02;22;;;10;;
75342;SDS011;63936;51.006;13.764;2023-11-22T07:24:02;22;;;10;;
75342;SDS011;63936;51.006;13.764;2023-11-22T07:26:01;20;;;10;;
75342;SDS011;63936;51.006;13.764;2023-11-22T07:28:01;22;;;10;;
75342;SDS011;63936;51.006;13.764;2023-11-22T07:30:02;30;;;16;;
75342;SDS011;63936;51.006;13.764;2023-11-22T07:32:01;33;;;23;;
75342;SDS011;63936;51.006;13.764;2023-11-22T07:34:02;23;;;13;;
75342;SDS011;63936;51.006;13.764;2023-11-22T07:36:02;23;;;12;;
75342;SDS011;63936;51.006;13.764;2023-11-22T07:38:01;23;;;12;;
75342;SDS011;63936;51.006;13.764;2023-11-22T07:40:03;28;;;16;;
75342;SDS011;63936;51.006;13.764;2023-11-22T07:42:01;25;;;13;;
75342;SDS011;63936;51.006;13.764;2023-11-22T07:44:02;20;;;12;;
75342;SDS011;63936;51.006;13.764;2023-11-22T07:46:04;22;;;11;;
75342;SDS011;63936;51.006;13.764;2023-11-22T07:48:02;22;;;11;;
75342;SDS011;63936;51.006;13.764;2023-11-22T07:50:02;21;;;10;;
75342;SDS011;63936;51.006;13.764;2023-11-22T07:52:02;22;;;10;;
75342;SDS011;63936;51.006;13.764;2023-11-22T07:54:02;25;;;12;;
75342;SDS011;63936;51.006;13.764;2023-11-22T07:56:01;25;;;12;;
75342;SDS011;63936;51.006;13.764;2023-11-22T07:58:01;22;;;10;;
75342;SDS011;63936;51.006;13.764;2023-11-22T08:00:03;22;;;10;;
75342;SDS011;63936;51.006;13.764;2023-11-22T08:02:02;22;;;10;;
75342;SDS011;63936;51.006;13.764;2023-11-22T08:04:01;22;;;10;;
75342;SDS011;63936;51.006;13.764;2023-11-22T08:06:02;34;;;19;;
75342;SDS011;63936;51.006;13.764;2023-11-22T08:08:02;22;;;12;;
75342;SDS011;63936;51.006;13.764;2023-11-22T08:10:03;22;;;12;;
75342;SDS011;63936;51.006;13.764;2023-11-22T08:12:02;20;;;11;;
75342;SDS011;63936;51.006;13.764;2023-11-22T08:14:01;23;;;11;;
75342;SDS011;63936;51.006;13.764;2023-11-22T08:16:02;23;;;11;;
75342;SDS011;63936;51.006;13.764;2023-11-22T08:18:02;25;;;14;;
75342;SDS011;63936;51.006;13.764;2023-11-22T08:20:05;22;;;12;;
75342;SDS011;63936;51.006;13.764;2023-11-22T08:22:02;19;;;10;;
75342;SDS011;63936;51.006;13.764;2023-11-22T08:24:02;19;;;9;;
75342;SDS011;63936;51.006;13.764;2023-11-22T08:26:01;17;;;9;;
75342;SDS011;63936;51.006;13.764;2023-11-22T08:28:02;19;;;10;;
75342;SDS011;63936;51.006;13.764;2023-11-22T08:30:02;19;;;10;;
75342;SDS011;63936;51.006;13.764;2023-11-22T08:32:02;23;;;13;;
75342;SDS011;63936;51.006;13.764;2023-11-22T08:34:02;19;;;11;;
75342;SDS011;63936;51.006;13.764;2023-11-22T08:36:02;22;;;10;;
75342;SDS011;63936;51.006;13.764;2023-11-22T08:38:02;24;;;10;;
75342;SDS011;63936;51.006;13.764;2023-11-22T08:40:01;24;;;14;;
75342;SDS011;63936;51.006;13.764;2023-11-22T08:42:01;26;;;14;;
75342;SDS011;63936;51.006;13.764;2023-11-22T08:44:01;19;;;11;;
75342;SDS011;63936;51.006;13.764;2023-11-22T08:46:02;22;;;11;;
75342;SDS011;63936;51.006;13.764;2023-11-22T08:48:02;22;;;11;;
75342;SDS011;63936;51.006;13.764;2023-11-22T08:50:02;25;;;13;;
75342;SDS011;63936;51.006;13.764;2023-11-22T08:52:01;25;;;14;;
75342;SDS011;63936;51.006;13.764;2023-11-22T08:54:01;22;;;12;;
75342;SDS011;63936;51.006;13.764;2023-11-22T08:56:02;22;;;12;;
75342;SDS011;63936;51.006;13.764;2023-11-22T08:58:02;25;;;14;;
75342;SDS011;63936;51.006;13.764;2023-11-22T09:00:02;20;;;11;;
75342;SDS011;63936;51.006;13.764;2023-11-22T09:02:01;21;;;11;;
75342;SDS011;63936;51.006;13.764;2023-11-22T09:04:01;20;;;10;;
75342;SDS011;63936;51.006;13.764;2023-11-22T09:06:02;19;;;10;;
75342;SDS011;63936;51.006;13.764;2023-11-22T09:08:02;18;;;9;;
75342;SDS011;63936;51.006;13.764;2023-11-22T09:10:02;19;;;10;;
75342;SDS011;63936;51.006;13.764;2023-11-22T09:12:01;18;;;9;;
75342;SDS011;63936;51.006;13.764;2023-11-22T09:14:01;22;;;10;;
75342;SDS011;63936;51.006;13.764;2023-11-22T09:16:01;20;;;9;;
75342;SDS011;63936;51.006;13.764;2023-11-22T09:18:01;20;;;10;;
75342;SDS011;63936;51.006;13.764;2023-11-22T09:20:03;19;;;10;;
75342;SDS011;63936;51.006;13.764;2023-11-22T09:22:02;19;;;9;;
75342;SDS011;63936;51.006;13.764;2023-11-22T09:24:02;19;;;9;;
75342;SDS011;63936;51.006;13.764;2023-11-22T09:26:01;19;;;9;;
75342;SDS011;63936;51.006;13.764;2023-11-22T09:28:01;20;;;9;;
75342;SDS011;63936;51.006;13.764;2023-11-22T09:30:03;20;;;9;;
75342;SDS011;63936;51.006;13.764;2023-11-22T09:32:02;16;;;8;;
75342;SDS011;63936;51.006;13.764;2023-11-22T09:34:01;18;;;9;;
75342;SDS011;63936;51.006;13.764;2023-11-22T09:36:02;23;;;9;;
75342;SDS011;63936;51.006;13.764;2023-11-22T09:38:02;20;;;9;;
75342;SDS011;63936;51.006;13.764;2023-11-22T09:40:03;21;;;9;;
75342;SDS011;63936;51.006;13.764;2023-11-22T09:42:01;20;;;9;;
75342;SDS011;63936;51.006;13.764;2023-11-22T09:44:01;17;;;9;;
75342;SDS011;63936;51.006;13.764;2023-11-22T09:46:01;18;;;9;;
75342;SDS011;63936;51.006;13.764;2023-11-22T09:48:01;19;;;10;;
75342;SDS011;63936;51.006;13.764;2023-11-22T09:50:02;18;;;10;;
75342;SDS011;63936;51.006;13.764;2023-11-22T09:52:01;18;;;8;;
75342;SDS011;63936;51.006;13.764;2023-11-22T09:54:03;19;;;9;;
75342;SDS011;63936;51.006;13.764;2023-11-22T09:56:02;20;;;10;;
75342;SDS011;63936;51.006;13.764;2023-11-22T09:58:01;19;;;9;;
75342;SDS011;63936;51.006;13.764;2023-11-22T10:00:02;15;;;8;;
75342;SDS011;63936;51.006;13.764;2023-11-22T10:02:01;16;;;8;;
75342;SDS011;63936;51.006;13.764;2023-11-22T10:04:01;16;;;9;;
75342;SDS011;63936;51.006;13.764;2023-11-22T10:06:01;16;;;8;;
75342;SDS011;63936;51.006;13.764;2023-11-22T10:08:01;19;;;9;;
75342;SDS011;63936;51.006;13.764;2023-11-22T10:10:03;18;;;8;;
75342;SDS011;63936;51.006;13.764;2023-11-22T10:12:02;16;;;8;;
75342;SDS011;63936;51.006;13.764;2023-11-22T10:14:02;17;;;9;;
75342;SDS011;63936;51.006;13.764;2023-11-22T10:16:08;14;;;7;;
75342;SDS011;63936;51.006;13.764;2023-11-22T10:18:01;14;;;7;;
75342;SDS011;63936;51.006;13.764;2023-11-22T10:20:02;15;;;7;;
75342;SDS011;63936;51.006;13.764;2023-11-22T10:22:01;15;;;7;;
75342;SDS011;63936;51.006;13.764;2023-11-22T10:24:02;13;;;7;;
75342;SDS011;63936;51.006;13.764;2023-11-22T10:26:01;13;;;7;;
75342;SDS011;63936;51.006;13.764;2023-11-22T10:28:01;16;;;7;;
75342;SDS011;63936;51.006;13.764;2023-11-22T10:30:03;17;;;8;;
75342;SDS011;63936;51.006;13.764;2023-11-22T10:32:02;16;;;8;;
75342;SDS011;63936;51.006;13.764;2023-11-22T10:34:01;15;;;7;;
75342;SDS011;63936;51.006;13.764;2023-11-22T10:36:01;13;;;7;;
75342;SDS011;63936;51.006;13.764;2023-11-22T10:38:01;13;;;6;;
75342;SDS011;63936;51.006;13.764;2023-11-22T10:40:02;12;;;6;;
75342;SDS011;63936;51.006;13.764;2023-11-22T10:42:01;13;;;7;;
75342;SDS011;63936;51.006;13.764;2023-11-22T10:44:01;13;;;7;;
75342;SDS011;63936;51.006;13.764;2023-11-22T10:46:02;14;;;7;;
75342;SDS011;63936;51.006;13.764;2023-11-22T10:48:02;12;;;6;;
75342;SDS011;63936;51.006;13.764;2023-11-22T10:50:03;13;;;6;;
75342;SDS011;63936;51.006;13.764;2023-11-22T10:52:01;12;;;6;;
75342;SDS011;63936;51.006;13.764;2023-11-22T10:54:01;14;;;7;;
75342;SDS011;63936;51.006;13.764;2023-11-22T10:56:03;13;;;7;;
75342;SDS011;63936;51.006;13.764;2023-11-22T10:58:02;13;;;7;;
75342;SDS011;63936;51.006;13.764;2023-11-22T11:00:03;13;;;6;;
75342;SDS011;63936;51.006;13.764;2023-11-22T11:02:01;13;;;6;;
75342;SDS011;63936;51.006;13.764;2023-11-22T11:04:02;13;;;7;;
75342;SDS011;63936;51.006;13.764;2023-11-22T11:06:02;12;;;5;;
75342;SDS011;63936;51.006;13.764;2023-11-22T11:08:07;13;;;6;;
75342;SDS011;63936;51.006;13.764;2023-11-22T11:10:03;12;;;6;;
75342;SDS011;63936;51.006;13.764;2023-11-22T11:12:01;13;;;7;;
75342;SDS011;63936;51.006;13.764;2023-11-22T11:14:01;14;;;7;;
75342;SDS011;63936;51.006;13.764;2023-11-22T11:16:01;12;;;6;;
75342;SDS011;63936;51.006;13.764;2023-11-22T11:18:01;13;;;6;;
75342;SDS011;63936;51.006;13.764;2023-11-22T11:20:03;11;;;6;;
75342;SDS011;63936;51.006;13.764;2023-11-22T11:22:01;11;;;6;;
75342;SDS011;63936;51.006;13.764;2023-11-22T11:24:01;17;;;6;;
75342;SDS011;63936;51.006;13.764;2023-11-22T11:26:08;17;;;6;;
75342;SDS011;63936;51.006;13.764;2023-11-22T11:28:02;11;;;5;;
75342;SDS011;63936;51.006;13.764;2023-11-22T11:30:10;11;;;5;;
75342;SDS011;63936;51.006;13.764;2023-11-22T11:32:02;12;;;6;;
75342;SDS011;63936;51.006;13.764;2023-11-22T11:34:05;11;;;6;;
75342;SDS011;63936;51.006;13.764;2023-11-22T11:36:03;13;;;6;;
75342;SDS011;63936;51.006;13.764;2023-11-22T11:38:02;12;;;6;;
75342;SDS011;63936;51.006;13.764;2023-11-22T11:40:09;13;;;6;;
75342;SDS011;63936;51.006;13.764;2023-11-22T11:42:08;13;;;7;;
75342;SDS011;63936;51.006;13.764;2023-11-22T11:44:01;11;;;6;;
75342;SDS011;63936;51.006;13.764;2023-11-22T11:46:01;11;;;6;;
75342;SDS011;63936;51.006;13.764;2023-11-22T11:48:01;14;;;6;;
75342;SDS011;63936;51.006;13.764;2023-11-22T11:50:03;13;;;6;;
75342;SDS011;63936;51.006;13.764;2023-11-22T11:52:01;14;;;6;;
75342;SDS011;63936;51.006;13.764;2023-11-22T11:54:01;13;;;6;;
75342;SDS011;63936;51.006;13.764;2023-11-22T11:56:01;14;;;7;;
75342;SDS011;63936;51.006;13.764;2023-11-22T11:58:04;14;;;7;;
75342;SDS011;63936;51.006;13.764;2023-11-22T12:00:02;12;;;6;;
75342;SDS011;63936;51.006;13.764;2023-11-22T12:02:01;12;;;6;;
75342;SDS011;63936;51.006;13.764;2023-11-22T12:04:01;16;;;8;;
75342;SDS011;63936;51.006;13.764;2023-11-22T12:06:01;17;;;8;;
75342;SDS011;63936;51.006;13.764;2023-11-22T12:08:01;14;;;7;;
75342;SDS011;63936;51.006;13.764;2023-11-22T12:10:03;14;;;7;;
75342;SDS011;63936;51.006;13.764;2023-11-22T12:12:01;12;;;6;;
75342;SDS011;63936;51.006;13.764;2023-11-22T12:14:01;12;;;6;;
75342;SDS011;63936;51.006;13.764;2023-11-22T12:16:01;12;;;6;;
75342;SDS011;63936;51.006;13.764;2023-11-22T12:18:01;12;;;6;;
75342;SDS011;63936;51.006;13.764;2023-11-22T12:20:10;12;;;6;;
75342;SDS011;63936;51.006;13.764;2023-11-22T12:22:02;14;;;7;;
75342;SDS011;63936;51.006;13.764;2023-11-22T12:24:02;15;;;7;;
75342;SDS011;63936;51.006;13.764;2023-11-22T12:26:01;15;;;7;;
75342;SDS011;63936;51.006;13.764;2023-11-22T12:28:01;13;;;7;;
75342;SDS011;63936;51.006;13.764;2023-11-22T12:30:01;14;;;6;;
75342;SDS011;63936;51.006;13.764;2023-11-22T12:32:01;12;;;6;;
75342;SDS011;63936;51.006;13.764;2023-11-22T12:34:01;12;;;6;;
75342;SDS011;63936;51.006;13.764;2023-11-22T12:36:02;14;;;6;;
75342;SDS011;63936;51.006;13.764;2023-11-22T12:38:02;14;;;6;;
75342;SDS011;63936;51.006;13.764;2023-11-22T12:40:10;10;;;5;;
75342;SDS011;63936;51.006;13.764;2023-11-22T12:42:02;11;;;5;;